Time;durP1;ratioP1;P1;durP2;ratioP2;P2;SDS_P1;SDS_P2;PMS_P1;PMS_P2;Temp;Humidity;BMP_temperature;BMP_pressure;BME280_temperature;BME280_humidity;BME280_pressure;Samples;Min_cycle;Max_cycle;Signal;HPM_P1;HPM_P2
2021/03/30 00:00:07;;;;;;;0.10;0.10;;;;;;;5.68;63.76;102252.78;1732746;82;21464;-47
2021/03/30 00:02:34;;;;;;;0.75;0.62;;;;;;;5.67;64.01;102257.91;1732695;82;21113;-47
2021/03/30 00:05:03;;;;;;;1.02;1.00;;;;;;;5.62;64.07;102253.09;1720305;82;21145;-47
2021/03/30 00:07:30;;;;;;;0.23;0.23;;;;;;;5.60;64.52;102253.28;1705150;82;21585;-47
2021/03/30 00:09:58;;;;;;;0.42;0.42;;;;;;;5.58;64.74;102253.99;1703294;82;21165;-46
2021/03/30 00:12:25;;;;;;;0.40;0.40;;;;;;;5.56;65.00;102250.67;1703155;84;21126;-47
2021/03/30 00:14:54;;;;;;;0.57;0.57;;;;;;;5.53;65.27;102261.90;1702996;84;21165;-46
2021/03/30 00:17:33;;;;;;;0.10;0.10;;;;;;;5.54;65.21;102262.23;1846690;76;22720;-46
2021/03/30 00:20:03;;;;;;;0.68;0.68;;;;;;;5.49;65.33;102264.72;1788064;78;21114;-46
2021/03/30 00:22:30;;;;;;;0.40;0.35;;;;;;;5.48;65.38;102266.27;1795217;78;21460;-47
2021/03/30 00:24:58;;;;;;;0.20;0.20;;;;;;;5.47;65.35;102271.38;1815065;78;21556;-46
2021/03/30 00:27:25;;;;;;;0.10;0.10;;;;;;;5.45;65.52;102271.57;1792366;78;21090;-47
2021/03/30 00:29:52;;;;;;;0.33;0.33;;;;;;;5.44;65.50;102273.98;1786021;80;21098;-47
2021/03/30 00:32:20;;;;;;;0.30;0.30;;;;;;;5.42;65.54;102269.27;1807127;78;21110;-47
2021/03/30 00:34:47;;;;;;;0.30;0.30;;;;;;;5.42;65.54;102275.22;1815315;78;21417;-47
2021/03/30 00:37:15;;;;;;;0.10;0.10;;;;;;;5.40;65.34;102274.05;1814822;78;21165;-47
2021/03/30 00:39:42;;;;;;;0.30;0.30;;;;;;;5.39;65.25;102279.16;1818113;78;21094;-47
2021/03/30 00:42:10;;;;;;;0.10;0.10;;;;;;;5.39;65.19;102281.88;1818215;78;21074;-47
2021/03/30 00:44:37;;;;;;;0.53;0.25;;;;;;;5.36;65.37;102274.95;1818114;78;21162;-46
2021/03/30 00:47:05;;;;;;;0.10;0.10;;;;;;;5.36;65.45;102276.83;1817908;78;21571;-46
2021/03/30 00:49:33;;;;;;;0.50;0.50;;;;;;;5.33;65.45;102278.59;1789971;78;21150;-47
2021/03/30 00:52:02;;;;;;;0.00;0.00;;;;;;;5.30;65.77;102274.41;1785954;80;21130;-47
2021/03/30 00:54:48;;;;;;;0.20;0.20;;;;;;;5.28;66.43;102276.48;1806726;78;21112;-46
2021/03/30 00:57:16;;;;;;;0.25;0.25;;;;;;;5.26;66.75;102275.00;1818310;78;21153;-47
2021/03/30 00:59:44;;;;;;;0.10;0.10;;;;;;;5.21;67.20;102272.05;1818102;78;21556;-47
2021/03/30 01:02:12;;;;;;;0.82;0.50;;;;;;;5.14;67.87;102270.16;1796422;78;21561;-46
2021/03/30 01:04:40;;;;;;;0.40;0.40;;;;;;;5.08;68.66;102275.52;1786177;78;21106;-47
2021/03/30 01:07:07;;;;;;;0.40;0.40;;;;;;;5.00;69.20;102272.97;1787647;78;21118;-46
2021/03/30 01:10:06;;;;;;;0.40;0.40;;;;;;;4.94;69.26;102275.41;1788231;78;21103;-46
2021/03/30 01:13:18;;;;;;;0.40;0.40;;;;;;;4.90;69.35;102273.32;1788353;78;21134;-46
2021/03/30 01:15:54;;;;;;;0.10;0.10;;;;;;;4.86;69.53;102277.44;1788174;78;21216;-47
2021/03/30 01:18:41;;;;;;;2.75;0.45;;;;;;;4.80;69.57;102276.86;1788406;78;21659;-46
2021/03/30 01:21:40;;;;;;;0.13;0.13;;;;;;;4.73;69.69;102276.83;1818296;78;21146;-47
2021/03/30 01:24:14;;;;;;;1.37;0.80;;;;;;;4.64;69.64;102273.93;1815805;78;21146;-46
2021/03/30 01:27:05;;;;;;;0.55;0.25;;;;;;;4.54;69.39;102278.32;1818499;78;21133;-46
2021/03/30 01:29:39;;;;;;;0.15;0.15;;;;;;;4.45;69.13;102278.13;1801967;78;21107;-47
2021/03/30 01:32:38;;;;;;;0.13;0.13;;;;;;;4.37;69.24;102279.09;1785402;80;21137;-46
2021/03/30 01:35:10;;;;;;;0.80;0.80;;;;;;;4.28;69.56;102285.17;1744594;78;21624;-47
2021/03/30 01:37:40;;;;;;;0.40;0.40;;;;;;;4.18;69.65;102279.73;1816373;78;21138;-46
2021/03/30 01:40:09;;;;;;;0.98;0.93;;;;;;;4.08;69.71;102285.48;1780777;78;21138;-46
2021/03/30 01:42:36;;;;;;;0.00;0.00;;;;;;;3.98;69.78;102282.22;1815298;78;21142;-47
2021/03/30 01:45:06;;;;;;;0.10;0.10;;;;;;;3.88;69.85;102275.27;1817328;78;21118;-46
2021/03/30 01:47:36;;;;;;;0.53;0.53;;;;;;;3.79;69.82;102279.62;1810013;78;21538;-47
2021/03/30 01:50:05;;;;;;;0.40;0.40;;;;;;;3.71;69.91;102276.52;1807803;78;21762;-46
2021/03/30 01:52:33;;;;;;;0.15;0.15;;;;;;;3.63;70.04;102273.90;1817392;78;21109;-46
2021/03/30 01:55:01;;;;;;;0.82;0.33;;;;;;;3.54;70.17;102271.83;1817300;78;21126;-46
2021/03/30 01:57:30;;;;;;;0.70;0.70;;;;;;;3.45;70.34;102271.08;1814282;78;21094;-46
2021/03/30 02:00:00;;;;;;;0.15;0.15;;;;;;;3.35;70.58;102282.69;1785740;78;21445;-47
2021/03/30 02:02:27;;;;;;;0.23;0.23;;;;;;;3.28;70.83;102285.80;1785037;80;21149;-46
2021/03/30 02:04:55;;;;;;;0.05;0.05;;;;;;;3.18;70.96;102287.43;1786944;78;21161;-46
2021/03/30 02:07:24;;;;;;;0.60;0.40;;;;;;;3.09;71.14;102282.30;1817635;78;21454;-47
2021/03/30 02:09:56;;;;;;;0.30;0.30;;;;;;;2.99;71.35;102289.31;1786778;78;21125;-46
2021/03/30 02:12:23;;;;;;;0.10;0.10;;;;;;;2.89;71.57;102292.28;1777841;80;21178;-46
2021/03/30 02:14:50;;;;;;;0.88;0.88;;;;;;;2.80;71.85;102290.70;1807107;78;21444;-47
2021/03/30 02:17:35;;;;;;;0.30;0.30;;;;;;;2.72;72.07;102293.45;1817370;78;21153;-46
2021/03/30 02:20:13;;;;;;;0.20;0.20;;;;;;;2.60;72.33;102287.67;1805238;78;21154;-47
2021/03/30 02:22:50;;;;;;;1.72;0.20;;;;;;;2.49;72.68;102286.73;1817249;78;21153;-46
2021/03/30 02:25:18;;;;;;;3.20;0.68;;;;;;;2.40;72.97;102298.12;1817613;78;21141;-46
2021/03/30 02:27:50;;;;;;;0.30;0.30;;;;;;;2.31;73.15;102289.74;1817408;78;21142;-46
2021/03/30 02:30:19;;;;;;;0.10;0.10;;;;;;;2.24;73.43;102297.70;1790525;78;21138;-46
2021/03/30 02:32:47;;;;;;;0.10;0.10;;;;;;;2.15;73.61;102288.84;1798845;78;21189;-46
2021/03/30 02:35:17;;;;;;;0.10;0.10;;;;;;;2.06;73.92;102295.30;1817577;78;21552;-46
2021/03/30 02:37:45;;;;;;;3.70;0.47;;;;;;;1.99;74.44;102295.67;1765224;80;21170;-47
2021/03/30 02:40:15;;;;;;;0.20;0.20;;;;;;;1.93;74.79;102303.14;1785408;78;21110;-47
2021/03/30 02:42:45;;;;;;;0.20;0.20;;;;;;;1.85;75.09;102300.47;1785321;80;21130;-46
2021/03/30 02:45:21;;;;;;;0.20;0.20;;;;;;;1.77;75.71;102303.20;1785391;78;21492;-46
2021/03/30 02:47:51;;;;;;;0.75;0.70;;;;;;;1.68;76.20;102301.91;1788745;78;21395;-46
2021/03/30 02:50:20;;;;;;;0.30;0.30;;;;;;;1.59;76.51;102304.30;1798316;78;21099;-46
2021/03/30 02:52:48;;;;;;;0.55;0.55;;;;;;;1.50;76.82;102312.07;1785625;80;21150;-46
2021/03/30 02:55:16;;;;;;;0.10;0.10;;;;;;;1.41;77.14;102310.41;1785523;78;21402;-47
2021/03/30 02:57:45;;;;;;;0.15;0.15;;;;;;;1.33;77.44;102313.13;1786509;78;21430;-47
2021/03/30 03:00:14;;;;;;;0.45;0.42;;;;;;;1.25;77.77;102310.80;1790732;78;21090;-46
2021/03/30 03:02:42;;;;;;;0.10;0.10;;;;;;;1.18;78.06;102304.41;1785661;78;21134;-46
2021/03/30 03:05:10;;;;;;;0.30;0.30;;;;;;;1.11;78.21;102306.10;1785482;80;21114;-46
2021/03/30 03:07:39;;;;;;;0.17;0.17;;;;;;;1.02;78.33;102315.23;1785516;80;21117;-46
2021/03/30 03:10:07;;;;;;;0.28;0.28;;;;;;;0.91;78.55;102310.19;1787523;78;21437;-46
2021/03/30 03:12:39;;;;;;;0.65;0.65;;;;;;;0.82;78.80;102321.48;1787579;78;21129;-46
2021/03/30 03:15:08;;;;;;;;;;;;;;;0.72;78.96;102320.30;1787965;80;21118;-46
2021/03/30 03:17:36;;;;;;;0.40;0.40;;;;;;;0.62;79.20;102317.78;1786049;78;20613;-47
2021/03/30 03:20:07;;;;;;;0.03;0.03;;;;;;;0.54;79.52;102312.88;1756750;78;21130;-46
2021/03/30 03:22:35;;;;;;;0.35;0.35;;;;;;;0.49;79.79;102315.23;1760752;78;21126;-47
2021/03/30 03:25:07;;;;;;;0.10;0.10;;;;;;;0.43;80.13;102319.44;1754807;80;21126;-46
2021/03/30 03:27:35;;;;;;;0.10;0.10;;;;;;;0.37;80.58;102322.30;1786034;78;21090;-46
2021/03/30 03:30:07;;;;;;;1.82;0.90;;;;;;;0.30;80.91;102314.56;1785106;80;21100;-46
2021/03/30 03:32:35;;;;;;;0.20;0.15;;;;;;;0.25;81.19;102318.25;1785210;80;21156;-46
2021/03/30 03:35:03;;;;;;;0.20;0.20;;;;;;;0.20;81.41;102321.94;1785184;78;21149;-47
2021/03/30 03:37:31;;;;;;;0.20;0.20;;;;;;;0.15;81.72;102318.91;1787305;78;21110;-46
2021/03/30 03:39:58;;;;;;;1.57;1.47;;;;;;;0.11;82.03;102324.27;1808499;78;21130;-46
2021/03/30 03:42:26;;;;;;;0.80;0.72;;;;;;;0.06;82.28;102322.06;1817327;78;21138;-46
2021/03/30 03:44:54;;;;;;;0.20;0.20;;;;;;;0.01;82.61;102326.25;1816935;78;21124;-46
2021/03/30 03:47:22;;;;;;;4.28;0.70;;;;;;;-0.02;82.91;102331.45;1803240;78;21138;-46
2021/03/30 03:49:49;;;;;;;0.20;0.20;;;;;;;-0.04;83.15;102336.98;1785093;80;21441;-46
2021/03/30 03:52:17;;;;;;;0.20;0.20;;;;;;;-0.07;83.67;102331.94;1802840;78;21114;-46
2021/03/30 03:54:44;;;;;;;0.15;0.15;;;;;;;-0.09;84.09;102327.22;1761182;78;21134;-46
2021/03/30 03:57:17;;;;;;;0.10;0.10;;;;;;;-0.07;84.52;102329.25;1786257;78;21122;-46
2021/03/30 03:59:46;;;;;;;0.57;0.57;;;;;;;-0.06;84.86;102332.27;1817570;78;21152;-46
2021/03/30 04:02:24;;;;;;;0.37;0.37;;;;;;;-0.03;85.18;102331.09;1761961;78;21102;-46
2021/03/30 04:05:11;;;;;;;0.08;0.08;;;;;;;0.01;85.45;102334.32;1817559;78;21152;-46
2021/03/30 04:08:04;;;;;;;0.10;0.10;;;;;;;0.03;85.62;102337.69;1788163;78;21473;-46
2021/03/30 04:10:33;;;;;;;0.67;0.40;;;;;;;0.06;85.71;102345.42;1787776;78;21106;-46
2021/03/30 04:13:01;;;;;;;0.42;0.42;;;;;;;0.09;85.79;102342.39;1785171;80;21862;-46
2021/03/30 04:15:31;;;;;;;0.13;0.13;;;;;;;0.11;85.89;102342.57;1787619;78;21130;-46
2021/03/30 04:17:59;;;;;;;0.40;0.40;;;;;;;0.15;86.04;102337.73;1785201;80;21110;-46
2021/03/30 04:20:27;;;;;;;0.95;0.95;;;;;;;0.19;86.12;102338.55;1814524;78;21102;-46
2021/03/30 04:22:56;;;;;;;0.13;0.13;;;;;;;0.24;86.17;102346.13;1817517;78;21181;-46
2021/03/30 04:25:28;;;;;;;0.62;0.62;;;;;;;0.30;86.51;102348.17;1785832;78;21552;-46
2021/03/30 04:27:55;;;;;;;0.00;0.00;;;;;;;0.33;86.73;102349.18;1787737;78;21146;-46
2021/03/30 04:30:24;;;;;;;0.00;0.00;;;;;;;0.38;87.01;102354.06;1785213;80;21505;-46
2021/03/30 04:32:51;;;;;;;9.60;2.17;;;;;;;0.42;87.39;102350.88;1788259;78;21620;-46
2021/03/30 04:35:19;;;;;;;0.80;0.80;;;;;;;0.52;87.83;102359.28;1793012;78;21347;-46
2021/03/30 04:37:46;;;;;;;0.10;0.10;;;;;;;0.61;88.24;102365.02;1778471;78;21540;-46
2021/03/30 04:40:15;;;;;;;0.33;0.33;;;;;;;0.72;88.89;102363.36;1817677;78;21402;-46
2021/03/30 04:42:43;;;;;;;1.30;1.20;;;;;;;0.85;89.16;102356.95;1817374;78;21185;-46
2021/03/30 04:45:11;;;;;;;0.55;0.40;;;;;;;1.03;89.18;102370.74;1791913;78;21104;-46
2021/03/30 04:47:39;;;;;;;0.00;0.00;;;;;;;1.21;89.31;102374.11;1754701;80;21173;-46
2021/03/30 04:50:07;;;;;;;2.35;1.55;;;;;;;1.40;89.23;102373.39;1807642;78;21098;-46
2021/03/30 04:52:36;;;;;;;0.90;0.68;;;;;;;1.58;89.13;102371.31;1814858;78;21548;-46
2021/03/30 04:55:07;;;;;;;0.50;0.50;;;;;;;1.76;88.79;102383.75;1772181;80;21552;-46
2021/03/30 04:57:35;;;;;;;4.03;0.50;;;;;;;1.93;88.35;102370.03;1807203;77;21161;-46
2021/03/30 05:00:07;;;;;;;0.10;0.10;;;;;;;2.10;87.93;102375.33;1814636;78;21134;-46
2021/03/30 05:02:34;;;;;;;0.25;0.25;;;;;;;2.26;87.49;102379.81;1810280;78;21082;-46
2021/03/30 05:05:02;;;;;;;0.45;0.45;;;;;;;2.40;86.92;102375.50;1797087;78;21126;-46
2021/03/30 05:07:29;;;;;;;0.30;0.30;;;;;;;2.54;86.14;102371.53;1790811;77;21434;-46
2021/03/30 05:09:57;;;;;;;1.52;0.50;;;;;;;2.69;85.36;102374.29;1811422;77;21099;-46
2021/03/30 05:12:25;;;;;;;0.23;0.23;;;;;;;2.87;85.13;102379.41;1797347;78;21531;-46
2021/03/30 05:14:52;;;;;;;3.20;0.53;;;;;;;3.04;84.87;102381.95;1838063;77;21510;-45
2021/03/30 05:17:20;;;;;;;0.53;0.53;;;;;;;3.20;83.72;102381.81;1829064;77;21142;-46
2021/03/30 05:19:47;;;;;;;0.33;0.30;;;;;;;3.37;83.71;102386.04;1788505;78;21691;-45
2021/03/30 05:22:15;;;;;;;1.07;1.07;;;;;;;3.56;83.06;102379.75;1754373;80;21171;-46
2021/03/30 05:24:42;;;;;;;0.72;0.72;;;;;;;3.76;82.82;102379.55;1785432;80;21125;-46
2021/03/30 05:27:10;;;;;;;1.07;0.37;;;;;;;3.95;82.42;102383.52;1785360;80;21121;-45
2021/03/30 05:29:43;;;;;;;0.30;0.30;;;;;;;4.14;81.67;102382.11;1785516;80;21573;-46
2021/03/30 05:32:15;;;;;;;0.30;0.30;;;;;;;4.30;81.48;102383.74;1785476;80;21165;-46
2021/03/30 05:34:45;;;;;;;1.15;0.28;;;;;;;4.49;80.85;102391.77;1785597;80;21145;-46
2021/03/30 05:37:12;;;;;;;3.08;2.77;;;;;;;4.63;80.08;102389.54;1785486;80;21118;-47
2021/03/30 05:39:40;;;;;;;1.42;1.35;;;;;;;4.78;79.36;102388.12;1785387;80;21153;-46
2021/03/30 05:42:08;;;;;;;0.65;0.65;;;;;;;4.92;79.06;102382.30;1785394;80;21198;-46
2021/03/30 05:44:36;;;;;;;0.53;0.53;;;;;;;5.05;78.47;102386.50;1785161;80;21146;-46
2021/03/30 05:47:19;;;;;;;0.80;0.80;;;;;;;5.20;78.28;102387.77;1754761;80;21121;-46
2021/03/30 05:49:46;;;;;;;2.02;0.62;;;;;;;5.34;76.85;102380.06;1785324;80;21161;-46
2021/03/30 05:52:21;;;;;;;0.53;0.53;;;;;;;5.53;75.76;102382.57;1785031;80;21181;-46
2021/03/30 05:54:48;;;;;;;0.20;0.20;;;;;;;5.68;73.69;102381.63;1785156;80;21098;-46
2021/03/30 05:57:17;;;;;;;3.90;0.55;;;;;;;5.78;72.72;102382.93;1785142;80;21126;-46
2021/03/30 05:59:48;;;;;;;0.88;0.70;;;;;;;5.89;71.57;102384.27;1785049;80;21180;-46
2021/03/30 06:02:30;;;;;;;0.15;0.15;;;;;;;6.00;71.42;102381.52;1729603;80;21625;-46
2021/03/30 06:05:07;;;;;;;0.10;0.10;;;;;;;6.19;70.37;102385.37;1883526;75;22716;-46
2021/03/30 06:07:38;;;;;;;0.10;0.10;;;;;;;6.25;69.52;102378.58;1854200;77;21110;-46
2021/03/30 06:10:09;;;;;;;0.53;0.37;;;;;;;6.33;69.18;102380.30;1854235;77;21579;-46
2021/03/30 06:12:37;;;;;;;0.78;0.78;;;;;;;6.46;69.62;102386.30;1784693;80;21131;-46
2021/03/30 06:15:06;;;;;;;0.82;0.80;;;;;;;6.60;68.99;102391.22;1784700;80;21560;-46
2021/03/30 06:17:47;;;;;;;1.12;1.12;;;;;;;6.72;67.06;102394.18;1784730;80;21162;-47
2021/03/30 06:20:28;;;;;;;0.80;0.62;;;;;;;6.78;67.93;102390.66;1784708;80;21107;-45
2021/03/30 06:23:00;;;;;;;0.35;0.35;;;;;;;6.81;65.42;102393.78;1784575;80;21111;-46
2021/03/30 06:25:42;;;;;;;0.75;0.75;;;;;;;6.78;65.77;102386.05;1781539;80;21179;-46
2021/03/30 06:28:26;;;;;;;0.20;0.20;;;;;;;6.84;66.60;102387.92;1784877;80;21130;-46
2021/03/30 06:31:10;;;;;;;0.50;0.50;;;;;;;7.02;66.90;102390.55;1785005;80;21175;-46
2021/03/30 06:33:54;;;;;;;0.30;0.30;;;;;;;7.19;66.09;102384.18;1785003;80;21546;-46
2021/03/30 06:36:26;;;;;;;0.13;0.13;;;;;;;7.36;66.31;102385.95;1785153;80;21171;-47
2021/03/30 06:39:04;;;;;;;0.40;0.40;;;;;;;7.45;65.17;102388.78;1785211;80;21695;-46
2021/03/30 06:41:46;;;;;;;0.65;0.65;;;;;;;7.56;65.71;102393.56;1785009;80;21110;-46
2021/03/30 06:44:29;;;;;;;2.02;1.20;;;;;;;7.74;65.28;102391.03;1784907;80;21470;-46
2021/03/30 06:47:15;;;;;;;0.62;0.62;;;;;;;7.90;63.99;102392.44;1785197;80;21455;-46
2021/03/30 06:50:03;;;;;;;2.87;1.98;;;;;;;7.95;62.64;102393.98;1784907;80;21111;-46
2021/03/30 06:52:34;;;;;;;0.90;0.90;;;;;;;7.98;62.81;102396.80;1784873;80;21187;-46
2021/03/30 06:55:08;;;;;;;1.57;1.47;;;;;;;8.05;62.89;102397.62;1784756;80;21122;-46
2021/03/30 06:57:47;;;;;;;2.05;0.78;;;;;;;8.15;62.08;102399.89;1784713;80;21107;-47
2021/03/30 07:00:36;;;;;;;0.75;0.75;;;;;;;8.24;62.47;102401.33;1784748;80;21123;-46
2021/03/30 07:03:13;;;;;;;1.10;1.00;;;;;;;8.41;62.50;102409.87;1785027;80;21233;-46
2021/03/30 07:05:43;;;;;;;0.53;0.50;;;;;;;8.47;60.62;102414.98;1737829;80;21211;-47
2021/03/30 07:08:14;;;;;;;0.98;0.85;;;;;;;8.35;60.95;102408.80;1790667;80;21157;-46
2021/03/30 07:10:45;;;;;;;5.60;1.35;;;;;;;8.41;61.78;102415.33;1790818;80;21110;-46
2021/03/30 07:13:15;;;;;;;0.78;0.42;;;;;;;8.50;60.15;102415.36;1790620;80;21091;-46
2021/03/30 07:15:45;;;;;;;;;;;;;;;8.57;60.79;102419.42;1792953;80;21395;-47
2021/03/30 07:18:23;;;;;;;0.10;0.10;;;;;;;8.73;60.78;102423.02;1790171;79;20285;-47
2021/03/30 07:21:02;;;;;;;0.35;0.35;;;;;;;8.91;58.79;102429.08;1806779;79;21108;-46
2021/03/30 07:23:33;;;;;;;0.30;0.30;;;;;;;8.96;56.94;102428.42;1790041;80;21107;-46
2021/03/30 07:26:12;;;;;;;0.25;0.25;;;;;;;8.93;56.25;102433.79;1790228;80;21147;-46
2021/03/30 07:28:52;;;;;;;0.03;0.03;;;;;;;8.91;57.54;102431.80;1790173;80;21493;-46
2021/03/30 07:31:25;;;;;;;0.20;0.20;;;;;;;9.02;58.10;102431.08;1790094;80;21003;-46
2021/03/30 07:34:02;;;;;;;0.30;0.30;;;;;;;9.24;56.70;102432.91;1790012;80;21162;-47
2021/03/30 07:36:36;;;;;;;0.37;0.37;;;;;;;9.37;53.88;102436.09;1790257;80;21118;-46
2021/03/30 07:39:04;;;;;;;0.42;0.23;;;;;;;9.34;52.65;102441.14;1789108;80;21174;-46
2021/03/30 07:41:32;;;;;;;0.72;0.72;;;;;;;9.23;52.22;102440.80;1790348;80;21186;-46
2021/03/30 07:44:01;;;;;;;1.27;0.40;;;;;;;9.24;53.42;102440.27;1761088;80;21154;-46
2021/03/30 07:46:30;;;;;;;0.00;0.00;;;;;;;9.43;53.22;102439.27;1790291;80;21130;-46
2021/03/30 07:48:58;;;;;;;0.35;0.35;;;;;;;9.63;50.80;102445.09;1790130;80;21149;-46
2021/03/30 07:51:39;;;;;;;1.25;0.28;;;;;;;9.65;50.92;102442.97;1762097;80;21186;-46
2021/03/30 07:54:15;;;;;;;0.57;0.57;;;;;;;9.65;50.99;102441.61;1790170;80;21158;-46
2021/03/30 07:56:48;;;;;;;1.60;0.95;;;;;;;9.71;49.99;102448.05;1790023;80;21178;-46
2021/03/30 07:59:48;;;;;;;0.08;0.08;;;;;;;9.71;49.51;102449.42;1789942;80;21577;-47
2021/03/30 08:02:24;;;;;;;4.87;0.40;;;;;;;9.78;50.06;102448.30;1790272;80;21533;-46
2021/03/30 08:05:06;;;;;;;0.10;0.10;;;;;;;9.81;49.56;102453.30;1786295;80;21138;-46
2021/03/30 08:07:51;;;;;;;0.10;0.10;;;;;;;9.76;49.36;102455.87;1784431;80;21115;-46
2021/03/30 08:10:32;;;;;;;0.10;0.10;;;;;;;9.81;47.75;102456.56;1784310;80;21435;-46
2021/03/30 08:13:28;;;;;;;1.12;0.55;;;;;;;9.76;48.21;102455.87;1779773;80;21139;-45
2021/03/30 08:16:02;;;;;;;0.10;0.10;;;;;;;9.85;48.31;102458.62;1784097;80;21110;-46
2021/03/30 08:18:36;;;;;;;0.10;0.10;;;;;;;9.86;49.34;102464.37;1784144;80;21107;-46
2021/03/30 08:21:11;;;;;;;0.10;0.10;;;;;;;9.98;48.60;102463.64;1784274;80;21609;-47
2021/03/30 08:23:56;;;;;;;0.55;0.08;;;;;;;10.03;47.82;102469.26;1784107;80;21174;-46
2021/03/30 08:26:37;;;;;;;0.30;0.30;;;;;;;10.07;47.71;102464.48;1816212;79;21507;-46
2021/03/30 08:29:11;;;;;;;0.10;0.10;;;;;;;10.22;47.37;102466.02;1783873;80;21095;-46
2021/03/30 08:31:46;;;;;;;0.40;0.30;;;;;;;10.18;45.87;102467.52;1784508;80;21158;-46
2021/03/30 08:34:25;;;;;;;0.37;0.37;;;;;;;10.04;46.60;102466.81;1784358;80;21178;-46
2021/03/30 08:36:57;;;;;;;3.60;1.42;;;;;;;10.02;47.05;102456.67;1784178;80;21454;-46
2021/03/30 08:39:30;;;;;;;0.77;0.77;;;;;;;10.14;47.06;102460.33;1784380;80;21155;-46
2021/03/30 08:42:19;;;;;;;0.05;0.05;;;;;;;10.33;46.17;102459.26;1784282;80;21499;-46
2021/03/30 08:45:03;;;;;;;0.30;0.30;;;;;;;10.42;45.19;102455.70;1784258;80;21142;-47
2021/03/30 08:47:42;;;;;;;0.20;0.20;;;;;;;10.47;45.58;102461.85;1784439;80;21623;-47
2021/03/30 08:50:24;;;;;;;0.00;0.00;;;;;;;10.57;46.00;102458.58;1784281;80;21174;-46
2021/03/30 08:52:56;;;;;;;0.35;0.35;;;;;;;10.68;44.87;102450.43;1784337;80;21159;-46
2021/03/30 08:55:32;;;;;;;0.35;0.28;;;;;;;10.72;44.78;102446.69;1784439;80;21115;-46
2021/03/30 08:58:01;;;;;;;0.08;0.08;;;;;;;10.81;45.55;102443.94;1784290;80;21130;-47
2021/03/30 09:00:29;;;;;;;0.28;0.28;;;;;;;10.92;44.73;102439.02;1784364;80;21154;-47
2021/03/30 09:03:01;;;;;;;0.00;0.00;;;;;;;11.00;44.07;102442.50;1784500;80;21139;-47
2021/03/30 09:05:39;;;;;;;0.60;0.35;;;;;;;11.08;43.53;102446.28;1784155;80;21565;-47
2021/03/30 09:08:11;;;;;;;0.30;0.13;;;;;;;11.07;40.51;102442.69;1784032;80;21103;-46
2021/03/30 09:10:40;;;;;;;0.05;0.05;;;;;;;11.06;41.37;102442.41;1783909;80;21146;-47
2021/03/30 09:13:15;;;;;;;0.00;0.00;;;;;;;11.09;40.15;102444.66;1784002;80;21541;-47
2021/03/30 09:15:44;;;;;;;0.00;0.00;;;;;;;11.05;41.57;102442.09;1783995;80;21155;-47
2021/03/30 09:18:18;;;;;;;0.00;0.00;;;;;;;11.02;41.09;102438.45;1783992;80;21162;-47
2021/03/30 09:20:45;;;;;;;0.23;0.23;;;;;;;11.08;42.08;102433.44;1780556;80;21147;-47
2021/03/30 09:23:24;;;;;;;0.00;0.00;;;;;;;11.25;41.34;102433.59;1784228;80;21792;-47
2021/03/30 09:25:50;;;;;;;0.00;0.00;;;;;;;11.31;41.08;102440.02;1783065;80;21151;-46
2021/03/30 09:28:16;;;;;;;0.10;0.10;;;;;;;11.38;41.17;102434.73;1783808;80;21223;-46
2021/03/30 09:30:45;;;;;;;0.10;0.10;;;;;;;11.45;40.82;102433.25;1784383;80;21110;-46
2021/03/30 09:33:12;;;;;;;0.30;0.15;;;;;;;11.51;40.78;102432.30;1784449;80;21114;-46
2021/03/30 09:35:41;;;;;;;1.65;0.80;;;;;;;11.52;40.25;102429.87;1754417;80;21135;-46
2021/03/30 09:38:09;;;;;;;0.45;0.23;;;;;;;11.53;40.42;102432.89;1784338;80;21074;-47
2021/03/30 09:40:41;;;;;;;1.25;0.42;;;;;;;11.56;40.49;102426.11;1784175;80;21134;-47
2021/03/30 09:43:14;;;;;;;0.80;0.20;;;;;;;11.60;41.15;102419.92;1784362;80;21162;-48
2021/03/30 09:45:43;;;;;;;0.40;0.40;;;;;;;11.65;40.59;102430.67;1784229;80;21465;-47
2021/03/30 09:48:14;;;;;;;0.10;0.10;;;;;;;11.74;39.37;102425.14;1782223;80;21165;-47
2021/03/30 09:50:49;;;;;;;0.20;0.20;;;;;;;11.83;38.43;102421.80;1731358;81;21127;-46
2021/03/30 09:53:17;;;;;;;0.10;0.10;;;;;;;11.82;39.78;102420.70;1768340;80;21229;-46
2021/03/30 09:55:45;;;;;;;0.00;0.00;;;;;;;11.86;39.91;102419.66;1753419;81;21894;-47
2021/03/30 09:58:18;;;;;;;0.17;0.17;;;;;;;11.90;39.89;102420.34;1793242;80;21830;-47
2021/03/30 10:00:50;;;;;;;0.05;0.05;;;;;;;11.98;39.14;102423.25;1780493;80;21130;-46
2021/03/30 10:03:17;;;;;;;0.05;0.05;;;;;;;12.08;39.37;102422.64;1762589;80;21242;-46
2021/03/30 10:05:46;;;;;;;0.00;0.00;;;;;;;12.18;38.66;102416.00;1788110;78;21142;-47
2021/03/30 10:08:22;;;;;;;0.10;0.10;;;;;;;12.06;39.48;102420.13;1778391;79;21305;-47
2021/03/30 10:10:54;;;;;;;0.35;0.30;;;;;;;12.02;37.89;102414.86;1756327;80;21489;-46
2021/03/30 10:13:36;;;;;;;1.17;0.40;;;;;;;11.94;38.72;102420.17;1750898;80;21183;-47
2021/03/30 10:16:08;;;;;;;0.70;0.10;;;;;;;11.85;38.28;102411.98;1768643;80;21142;-47
2021/03/30 10:18:36;;;;;;;0.40;0.35;;;;;;;11.88;40.21;102410.16;1763521;80;21126;-46
2021/03/30 10:21:18;;;;;;;0.45;0.45;;;;;;;11.99;40.23;102411.20;1790909;80;21115;-46
2021/03/30 10:23:52;;;;;;;0.35;0.35;;;;;;;12.01;39.69;102407.16;1767100;80;21158;-47
2021/03/30 10:26:25;;;;;;;0.30;0.30;;;;;;;12.00;40.30;102402.76;1764697;78;21130;-48
2021/03/30 10:29:02;;;;;;;0.57;0.57;;;;;;;12.07;39.98;102405.89;1761121;80;21146;-47
2021/03/30 10:34:31;;;;;;;0.80;0.62;;;;;;;12.02;40.01;102395.68;1757213;80;21138;-47
2021/03/30 10:37:07;;;;;;;0.40;0.40;;;;;;;12.15;39.51;102395.94;1756642;81;21158;-46
2021/03/30 10:39:39;;;;;;;0.47;0.47;;;;;;;12.17;39.21;102389.69;1754827;80;21186;-47
2021/03/30 10:42:10;;;;;;;0.40;0.40;;;;;;;12.15;39.88;102388.55;1766946;80;21497;-46
2021/03/30 10:44:45;;;;;;;1.90;0.45;;;;;;;12.14;40.62;102386.03;1783529;80;21143;-47
2021/03/30 10:47:24;;;;;;;0.17;0.10;;;;;;;12.14;41.21;102386.03;1778156;80;21577;-47
2021/03/30 10:49:56;;;;;;;1.20;0.72;;;;;;;12.29;41.07;102384.14;1762197;80;21178;-47
2021/03/30 10:52:33;;;;;;;0.75;0.75;;;;;;;12.39;41.52;102381.08;1777157;80;21163;-47
2021/03/30 10:55:05;;;;;;;0.17;0.17;;;;;;;12.52;41.17;102379.13;1756836;80;21238;-47
2021/03/30 10:57:34;;;;;;;0.45;0.45;;;;;;;12.66;40.36;102369.48;1764152;80;21001;-46
2021/03/30 11:00:09;;;;;;;0.15;0.15;;;;;;;12.75;38.99;102367.19;1773329;80;21135;-46
2021/03/30 11:02:37;;;;;;;0.62;0.62;;;;;;;12.76;40.26;102367.47;1774086;80;21131;-47
2021/03/30 11:05:07;;;;;;;0.37;0.37;;;;;;;12.74;40.45;102363.62;1772018;80;21147;-47
2021/03/30 11:07:38;;;;;;;0.17;0.17;;;;;;;12.74;40.53;102360.88;1774796;80;21156;-48
2021/03/30 11:10:09;;;;;;;1.20;1.15;;;;;;;12.83;39.91;102358.03;1770466;81;21166;-47
2021/03/30 11:12:37;;;;;;;0.88;0.88;;;;;;;12.84;40.57;102366.54;1784730;80;21115;-47
2021/03/30 11:15:07;;;;;;;0.05;0.05;;;;;;;12.91;40.36;102351.30;1759154;80;22063;-47
2021/03/30 11:17:35;;;;;;;0.23;0.23;;;;;;;13.03;40.04;102360.28;1761599;79;21168;-47
2021/03/30 11:20:06;;;;;;;0.33;0.33;;;;;;;13.17;39.61;102357.19;1789289;79;21649;-48
2021/03/30 11:22:34;;;;;;;0.60;0.47;;;;;;;13.18;39.60;102348.72;1776694;79;21462;-47
2021/03/30 11:25:03;;;;;;;0.88;0.25;;;;;;;13.13;39.11;102348.09;1767381;79;21135;-47
2021/03/30 11:27:34;;;;;;;0.40;0.30;;;;;;;12.97;38.11;102345.34;1767386;79;21143;-46
2021/03/30 11:32:40;;;;;;;0.40;0.40;;;;;;;12.72;38.32;102345.75;1771931;79;21119;-47
2021/03/30 11:35:14;;;;;;;2.00;0.90;;;;;;;12.67;40.06;102346.48;1774843;79;21154;-47
2021/03/30 11:40:08;;;;;;;0.70;0.70;;;;;;;12.60;40.03;102333.47;1763768;80;21123;-48
2021/03/30 11:42:36;;;;;;;0.42;0.40;;;;;;;12.74;39.33;102327.14;1757895;80;21136;-47
2021/03/30 11:45:05;;;;;;;0.85;0.53;;;;;;;12.80;38.58;102326.95;1774627;79;21152;-47
2021/03/30 11:47:33;;;;;;;0.72;0.50;;;;;;;12.74;38.50;102328.52;1767822;79;21123;-47
2021/03/30 11:50:01;;;;;;;0.62;0.62;;;;;;;12.66;37.97;102322.86;1782025;79;21152;-47
2021/03/30 11:52:29;;;;;;;0.30;0.20;;;;;;;12.67;39.52;102324.00;1789839;80;21157;-47
2021/03/30 11:54:58;;;;;;;0.50;0.40;;;;;;;12.68;39.07;102323.45;1768340;80;21233;-48
2021/03/30 11:57:26;;;;;;;0.55;0.55;;;;;;;12.72;38.74;102319.14;1791520;78;21150;-47
2021/03/30 11:59:54;;;;;;;0.55;0.55;;;;;;;12.82;38.66;102309.71;1796799;78;21800;-47
2021/03/30 12:02:22;;;;;;;0.50;0.50;;;;;;;12.91;37.00;102309.59;1765148;80;21153;-47